Petrolia, Canada
Current Conditions -  °F | °C
As of 3:00 PM on Monday 22 Dec 2014 (Local Time) from CYZR Reporting Station
Clear Clear  
Wind Chill: 30°   Ceiling: Unl
Heat Index: 37°   Visibility: 9mi
Dew Point: 30°   Wind: 12mph
Humidity: 75%   Direction: 130°SE
Pressure: 29.99"   Gusts: NA
Location:  42.88°N, 82.15°W
Report Text: CYZR 222000Z AUTO 13010KT 9SM CLR 03/M01 A2999 RMK SLP164
Loading
Personal Weather Stations






























Interactive Weather Map New forecast layout! Learn more

10-Day Weather Forecast

Advertisements
Track Severe Weather on mobile